Terminal Aerodrome Forecast
Issued by NWS

Home | Current Version | Previous Version | Text Only | Print | Product List | Glossary On
Versions: 1 2 3 4 5 6 7 8 9 10 11 12 13 14 15 16
000
FTUS43 KIND 232300
TAFLAF
TAF
KLAF 232320Z 2400/2424 13009KT 3SM RA BR OVC008
     FM240400 22011KT 3SM RA BR OVC005
     FM241400 25018G28KT 6SM -SHRA BR OVC015
     FM241800 26024G35KT P6SM OVC030
      AMD LTD TO CLD VIS AND WIND 2402/2414=

USA.gov is the U.S. government's official web portal to all federal, state and local government web resources and services.